sensor_id;sensor_type;location;lat;lon;timestamp;pressure;altitude;pressure_sealevel;temperature;humidity
48796;BME280;34607;48.520;-1.330;2023-02-17T07:45:27;101434.03;;;11.89;100.00
48796;BME280;34607;48.520;-1.330;2023-02-17T07:47:54;101434.97;;;11.91;100.00
48796;BME280;34607;48.520;-1.330;2023-02-17T07:50:21;101420.22;;;11.90;100.00
48796;BME280;34607;48.520;-1.330;2023-02-17T07:52:49;101422.00;;;11.91;100.00
48796;BME280;34607;48.520;-1.330;2023-02-17T07:55:17;101409.78;;;11.88;100.00
48796;BME280;34607;48.520;-1.330;2023-02-17T07:57:44;101435.06;;;11.94;100.00
48796;BME280;34607;48.520;-1.330;2023-02-17T08:00:12;101427.19;;;11.91;100.00
48796;BME280;34607;48.520;-1.330;2023-02-17T08:02:40;101427.19;;;11.91;100.00
48796;BME280;34607;48.520;-1.330;2023-02-17T08:05:07;101432.41;;;11.92;100.00
48796;BME280;34607;48.520;-1.330;2023-02-17T08:07:34;101439.38;;;11.93;100.00
48796;BME280;34607;48.520;-1.330;2023-02-17T08:10:02;101432.19;;;11.85;100.00
48796;BME280;34607;48.520;-1.330;2023-02-17T08:12:46;101441.25;;;11.70;100.00
48796;BME280;34607;48.520;-1.330;2023-02-17T08:15:32;101438.97;;;11.79;100.00
48796;BME280;34607;48.520;-1.330;2023-02-17T08:18:01;101444.44;;;11.90;100.00
48796;BME280;34607;48.520;-1.330;2023-02-17T08:20:29;101438.38;;;11.90;100.00
48796;BME280;34607;48.520;-1.330;2023-02-17T08:22:57;101448.13;;;11.97;100.00
48796;BME280;34607;48.520;-1.330;2023-02-17T08:25:25;101449.06;;;11.99;100.00
48796;BME280;34607;48.520;-1.330;2023-02-17T08:27:53;101455.09;;;11.98;100.00
48796;BME280;34607;48.520;-1.330;2023-02-17T08:30:20;101442.91;;;11.95;100.00
48796;BME280;34607;48.520;-1.330;2023-02-17T08:32:47;101456.94;;;12.02;100.00
48796;BME280;34607;48.520;-1.330;2023-02-17T08:35:16;101453.56;;;12.06;100.00
48796;BME280;34607;48.520;-1.330;2023-02-17T08:37:44;101450.97;;;12.05;100.00
48796;BME280;34607;48.520;-1.330;2023-02-17T08:40:11;101454.72;;;12.16;100.00
48796;BME280;34607;48.520;-1.330;2023-02-17T08:42:38;101459.97;;;12.17;100.00
48796;BME280;34607;48.520;-1.330;2023-02-17T08:45:06;101453.16;;;12.23;100.00
48796;BME280;34607;48.520;-1.330;2023-02-17T08:47:34;101443.56;;;12.18;100.00
48796;BME280;34607;48.520;-1.330;2023-02-17T08:50:01;101460.97;;;12.23;100.00
48796;BME280;34607;48.520;-1.330;2023-02-17T08:52:30;101463.66;;;12.26;100.00
48796;BME280;34607;48.520;-1.330;2023-02-17T08:54:57;101472.31;;;12.26;100.00
48796;BME280;34607;48.520;-1.330;2023-02-17T08:57:24;101462.72;;;12.24;100.00
48796;BME280;34607;48.520;-1.330;2023-02-17T08:59:52;101467.06;;;12.25;100.00
48796;BME280;34607;48.520;-1.330;2023-02-17T09:02:19;101467.97;;;12.27;100.00
48796;BME280;34607;48.520;-1.330;2023-02-17T09:04:47;101468.06;;;12.30;100.00
48796;BME280;34607;48.520;-1.330;2023-02-17T09:07:14;101446.16;;;12.18;100.00
48796;BME280;34607;48.520;-1.330;2023-02-17T09:09:43;101468.34;;;12.39;100.00
48796;BME280;34607;48.520;-1.330;2023-02-17T09:12:10;101475.28;;;12.40;100.00
48796;BME280;34607;48.520;-1.330;2023-02-17T09:14:37;101470.91;;;12.38;100.00
48796;BME280;34607;48.520;-1.330;2023-02-17T09:17:04;101479.59;;;12.40;100.00
48796;BME280;34607;48.520;-1.330;2023-02-17T09:19:31;101481.44;;;12.44;100.00
48796;BME280;34607;48.520;-1.330;2023-02-17T09:21:58;101483.16;;;12.43;100.00
48796;BME280;34607;48.520;-1.330;2023-02-17T09:24:25;101487.44;;;12.41;100.00
48796;BME280;34607;48.520;-1.330;2023-02-17T09:26:54;101486.63;;;12.44;100.00
48796;BME280;34607;48.520;-1.330;2023-02-17T09:29:21;101491.97;;;12.48;100.00
48796;BME280;34607;48.520;-1.330;2023-02-17T09:31:48;101494.69;;;12.53;100.00
48796;BME280;34607;48.520;-1.330;2023-02-17T09:34:15;101495.56;;;12.53;100.00
48796;BME280;34607;48.520;-1.330;2023-02-17T09:36:43;101503.44;;;12.57;100.00
48796;BME280;34607;48.520;-1.330;2023-02-17T09:39:10;101491.38;;;12.59;100.00
48796;BME280;34607;48.520;-1.330;2023-02-17T09:41:42;101498.38;;;12.63;100.00
48796;BME280;34607;48.520;-1.330;2023-02-17T09:44:18;101494.00;;;12.60;100.00
48796;BME280;34607;48.520;-1.330;2023-02-17T09:46:52;101492.13;;;12.54;100.00
48796;BME280;34607;48.520;-1.330;2023-02-17T09:49:23;101499.94;;;12.54;100.00
48796;BME280;34607;48.520;-1.330;2023-02-17T09:51:55;101506.88;;;12.55;100.00
48796;BME280;34607;48.520;-1.330;2023-02-17T09:54:28;101495.47;;;12.50;100.00
48796;BME280;34607;48.520;-1.330;2023-02-17T09:56:58;101486.59;;;12.42;100.00
48796;BME280;34607;48.520;-1.330;2023-02-17T09:59:32;101500.66;;;12.50;100.00
48796;BME280;34607;48.520;-1.330;2023-02-17T10:02:06;101504.19;;;12.52;100.00
48796;BME280;34607;48.520;-1.330;2023-02-17T10:04:40;101492.91;;;12.52;100.00
48796;BME280;34607;48.520;-1.330;2023-02-17T10:07:14;101487.31;;;12.36;100.00
48796;BME280;34607;48.520;-1.330;2023-02-17T10:09:47;101496.19;;;12.45;100.00
48796;BME280;34607;48.520;-1.330;2023-02-17T10:12:18;101497.19;;;12.50;100.00
48796;BME280;34607;48.520;-1.330;2023-02-17T10:14:51;101506.13;;;12.60;100.00
48796;BME280;34607;48.520;-1.330;2023-02-17T10:17:25;101498.47;;;12.66;100.00
48796;BME280;34607;48.520;-1.330;2023-02-17T10:19:59;101503.97;;;12.77;100.00
48796;BME280;34607;48.520;-1.330;2023-02-17T10:22:30;101512.78;;;12.83;100.00
48796;BME280;34607;48.520;-1.330;2023-02-17T10:24:59;101516.38;;;12.88;100.00
48796;BME280;34607;48.520;-1.330;2023-02-17T10:27:31;101504.31;;;12.90;100.00
48796;BME280;34607;48.520;-1.330;2023-02-17T10:30:14;101507.88;;;12.94;100.00
48796;BME280;34607;48.520;-1.330;2023-02-17T10:32:56;101514.94;;;13.00;100.00
48796;BME280;34607;48.520;-1.330;2023-02-17T10:35:33;101514.16;;;13.02;100.00
48796;BME280;34607;48.520;-1.330;2023-02-17T10:38:14;101513.28;;;13.03;100.00
48796;BME280;34607;48.520;-1.330;2023-02-17T10:40:45;101516.75;;;13.04;100.00
48796;BME280;34607;48.520;-1.330;2023-02-17T10:43:19;101522.69;;;12.98;100.00
48796;BME280;34607;48.520;-1.330;2023-02-17T10:45:49;101520.06;;;12.97;100.00
48796;BME280;34607;48.520;-1.330;2023-02-17T10:48:19;101535.75;;;13.00;100.00
48796;BME280;34607;48.520;-1.330;2023-02-17T10:50:48;101537.50;;;13.01;100.00
48796;BME280;34607;48.520;-1.330;2023-02-17T10:53:17;101538.56;;;13.09;100.00
48796;BME280;34607;48.520;-1.330;2023-02-17T10:55:53;101541.28;;;13.14;100.00
48796;BME280;34607;48.520;-1.330;2023-02-17T10:58:27;101549.22;;;13.18;100.00
48796;BME280;34607;48.520;-1.330;2023-02-17T11:00:59;101544.75;;;13.14;100.00
48796;BME280;34607;48.520;-1.330;2023-02-17T11:03:29;101549.13;;;13.15;100.00
48796;BME280;34607;48.520;-1.330;2023-02-17T11:05:57;101549.09;;;13.14;100.00
48796;BME280;34607;48.520;-1.330;2023-02-17T11:08:37;101549.97;;;13.14;100.00
48796;BME280;34607;48.520;-1.330;2023-02-17T11:11:13;101548.19;;;13.11;100.00
48796;BME280;34607;48.520;-1.330;2023-02-17T11:13:43;101559.66;;;13.20;100.00
48796;BME280;34607;48.520;-1.330;2023-02-17T11:16:25;101546.53;;;13.15;100.00
48796;BME280;34607;48.520;-1.330;2023-02-17T11:18:53;101536.88;;;13.09;100.00
48796;BME280;34607;48.520;-1.330;2023-02-17T11:21:21;101557.09;;;13.23;100.00
48796;BME280;34607;48.520;-1.330;2023-02-17T11:23:51;101544.84;;;13.17;100.00
48796;BME280;34607;48.520;-1.330;2023-02-17T11:26:22;101560.63;;;13.23;100.00
48796;BME280;34607;48.520;-1.330;2023-02-17T11:28:50;101556.38;;;13.27;100.00
48796;BME280;34607;48.520;-1.330;2023-02-17T11:31:27;101552.03;;;13.27;100.00
48796;BME280;34607;48.520;-1.330;2023-02-17T11:33:55;101552.22;;;13.34;100.00
48796;BME280;34607;48.520;-1.330;2023-02-17T11:36:24;101544.22;;;13.27;100.00
48796;BME280;34607;48.520;-1.330;2023-02-17T11:38:51;101559.13;;;13.33;100.00
48796;BME280;34607;48.520;-1.330;2023-02-17T11:41:18;101548.41;;;13.21;100.00
48796;BME280;34607;48.520;-1.330;2023-02-17T11:43:53;101555.50;;;13.26;100.00
48796;BME280;34607;48.520;-1.330;2023-02-17T11:46:31;101554.66;;;13.29;100.00
48796;BME280;34607;48.520;-1.330;2023-02-17T11:52:18;101558.47;;;13.07;100.00
48796;BME280;34607;48.520;-1.330;2023-02-17T11:55:10;101560.84;;;12.98;100.00
48796;BME280;34607;48.520;-1.330;2023-02-17T11:57:41;101533.94;;;12.64;100.00
48796;BME280;34607;48.520;-1.330;2023-02-17T12:00:13;101549.41;;;12.59;100.00
48796;BME280;34607;48.520;-1.330;2023-02-17T12:03:11;101543.13;;;12.51;100.00
48796;BME280;34607;48.520;-1.330;2023-02-17T12:05:52;101542.09;;;12.44;100.00
48796;BME280;34607;48.520;-1.330;2023-02-17T12:08:23;101527.84;;;12.31;100.00
48796;BME280;34607;48.520;-1.330;2023-02-17T12:11:03;101541.75;;;12.33;100.00
48796;BME280;34607;48.520;-1.330;2023-02-17T12:13:41;101538.47;;;12.39;100.00
48796;BME280;34607;48.520;-1.330;2023-02-17T12:16:34;101547.38;;;12.49;100.00
48796;BME280;34607;48.520;-1.330;2023-02-17T12:19:26;101539.41;;;12.41;100.00
48796;BME280;34607;48.520;-1.330;2023-02-17T12:22:04;101542.81;;;12.40;100.00
48796;BME280;34607;48.520;-1.330;2023-02-17T12:24:43;101536.66;;;12.36;100.00
48796;BME280;34607;48.520;-1.330;2023-02-17T12:27:24;101533.25;;;12.38;100.00
48796;BME280;34607;48.520;-1.330;2023-02-17T12:30:02;101530.50;;;12.33;100.00
48796;BME280;34607;48.520;-1.330;2023-02-17T12:32:42;101526.13;;;12.32;100.00
48796;BME280;34607;48.520;-1.330;2023-02-17T12:35:17;101504.34;;;12.27;100.00
48796;BME280;34607;48.520;-1.330;2023-02-17T12:37:49;101514.16;;;12.37;100.00
48796;BME280;34607;48.520;-1.330;2023-02-17T12:40:30;101515.00;;;12.36;100.00
48796;BME280;34607;48.520;-1.330;2023-02-17T12:43:00;101526.50;;;12.44;100.00
48796;BME280;34607;48.520;-1.330;2023-02-17T12:45:35;101521.34;;;12.46;100.00
48796;BME280;34607;48.520;-1.330;2023-02-17T12:48:04;101517.13;;;12.49;100.00
48796;BME280;34607;48.520;-1.330;2023-02-17T12:50:36;101514.34;;;12.43;100.00
48796;BME280;34607;48.520;-1.330;2023-02-17T12:53:06;101516.28;;;12.52;100.00
48796;BME280;34607;48.520;-1.330;2023-02-17T12:55:42;101500.72;;;12.52;100.00
48796;BME280;34607;48.520;-1.330;2023-02-17T12:58:15;101508.97;;;12.69;100.00
48796;BME280;34607;48.520;-1.330;2023-02-17T13:00:45;101512.78;;;12.82;100.00
48796;BME280;34607;48.520;-1.330;2023-02-17T13:03:14;101508.47;;;12.84;100.00
48796;BME280;34607;48.520;-1.330;2023-02-17T13:05:46;101508.53;;;12.85;100.00
48796;BME280;34607;48.520;-1.330;2023-02-17T13:08:21;101501.84;;;12.97;100.00
48796;BME280;34607;48.520;-1.330;2023-02-17T13:10:59;101498.09;;;12.84;100.00
48796;BME280;34607;48.520;-1.330;2023-02-17T13:13:29;101511.09;;;12.84;100.00
48796;BME280;34607;48.520;-1.330;2023-02-17T13:16:04;101496.84;;;12.69;100.00
48796;BME280;34607;48.520;-1.330;2023-02-17T13:18:34;101511.19;;;12.55;100.00
48796;BME280;34607;48.520;-1.330;2023-02-17T13:21:15;101515.84;;;12.35;100.00
48796;BME280;34607;48.520;-1.330;2023-02-17T13:23:44;101510.53;;;12.30;100.00
48796;BME280;34607;48.520;-1.330;2023-02-17T13:26:33;101510.41;;;12.26;100.00
48796;BME280;34607;48.520;-1.330;2023-02-17T13:29:15;101508.47;;;12.18;100.00
48796;BME280;34607;48.520;-1.330;2023-02-17T13:31:49;101507.50;;;12.15;100.00
48796;BME280;34607;48.520;-1.330;2023-02-17T13:34:26;101504.28;;;12.24;100.00
48796;BME280;34607;48.520;-1.330;2023-02-17T13:36:56;101496.44;;;12.22;100.00
48796;BME280;34607;48.520;-1.330;2023-02-17T13:39:33;101504.44;;;12.30;100.00
48796;BME280;34607;48.520;-1.330;2023-02-17T13:42:01;101507.06;;;12.31;100.00
48796;BME280;34607;48.520;-1.330;2023-02-17T13:44:29;101489.81;;;12.33;100.00
48796;BME280;34607;48.520;-1.330;2023-02-17T13:46:58;101484.84;;;12.41;100.00
48796;BME280;34607;48.520;-1.330;2023-02-17T13:49:28;101493.34;;;12.35;100.00
48796;BME280;34607;48.520;-1.330;2023-02-17T13:52:09;101490.75;;;12.35;100.00
48796;BME280;34607;48.520;-1.330;2023-02-17T13:54:36;101492.31;;;12.29;100.00
48796;BME280;34607;48.520;-1.330;2023-02-17T13:57:04;101507.94;;;12.32;100.00
48796;BME280;34607;48.520;-1.330;2023-02-17T13:59:31;101497.84;;;12.41;100.00
48796;BME280;34607;48.520;-1.330;2023-02-17T14:01:59;101504.56;;;12.34;100.00
48796;BME280;34607;48.520;-1.330;2023-02-17T14:04:28;101504.28;;;12.24;100.00
48796;BME280;34607;48.520;-1.330;2023-02-17T14:06:56;101504.28;;;12.24;100.00
48796;BME280;34607;48.520;-1.330;2023-02-17T14:09:27;101504.44;;;12.30;100.00
48796;BME280;34607;48.520;-1.330;2023-02-17T14:11:56;101507.66;;;12.21;100.00
48796;BME280;34607;48.520;-1.330;2023-02-17T14:14:27;101498.81;;;12.14;100.00
48796;BME280;34607;48.520;-1.330;2023-02-17T14:16:58;101466.44;;;12.02;100.00
48796;BME280;34607;48.520;-1.330;2023-02-17T14:19:25;101501.56;;;12.19;100.00
48796;BME280;34607;48.520;-1.330;2023-02-17T14:21:58;101495.72;;;12.28;100.00
48796;BME280;34607;48.520;-1.330;2023-02-17T14:24:30;101497.91;;;12.44;100.00
48796;BME280;34607;48.520;-1.330;2023-02-17T14:26:59;101488.31;;;12.42;100.00
48796;BME280;34607;48.520;-1.330;2023-02-17T14:29:37;101500.03;;;12.59;100.00
48796;BME280;34607;48.520;-1.330;2023-02-17T14:32:05;101500.88;;;12.58;100.00
48796;BME280;34607;48.520;-1.330;2023-02-17T14:34:34;101491.19;;;12.52;100.00
48796;BME280;34607;48.520;-1.330;2023-02-17T14:37:08;101484.88;;;12.43;100.00
48796;BME280;34607;48.520;-1.330;2023-02-17T14:39:37;101501.53;;;12.49;100.00
48796;BME280;34607;48.520;-1.330;2023-02-17T14:42:04;101496.28;;;12.48;100.00
48796;BME280;34607;48.520;-1.330;2023-02-17T14:44:31;101503.34;;;12.53;100.00
48796;BME280;34607;48.520;-1.330;2023-02-17T14:46:59;101499.03;;;12.54;100.00
48796;BME280;34607;48.520;-1.330;2023-02-17T14:49:26;101506.03;;;12.57;100.00
48796;BME280;34607;48.520;-1.330;2023-02-17T14:51:53;101500.81;;;12.55;100.00
48796;BME280;34607;48.520;-1.330;2023-02-17T14:54:20;101504.44;;;12.62;100.00
48796;BME280;34607;48.520;-1.330;2023-02-17T14:56:55;101498.38;;;12.61;100.00
48796;BME280;34607;48.520;-1.330;2023-02-17T14:59:23;101505.44;;;12.67;100.00
48796;BME280;34607;48.520;-1.330;2023-02-17T15:01:50;101506.41;;;12.70;100.00
48796;BME280;34607;48.520;-1.330;2023-02-17T15:04:17;101508.63;;;12.57;100.00
48796;BME280;34607;48.520;-1.330;2023-02-17T15:06:49;101512.06;;;12.55;100.00
48796;BME280;34607;48.520;-1.330;2023-02-17T15:09:30;101516.56;;;12.61;100.00
48796;BME280;34607;48.520;-1.330;2023-02-17T15:11:59;101509.91;;;12.72;100.00
48796;BME280;34607;48.520;-1.330;2023-02-17T15:14:27;101512.44;;;12.69;100.00
48796;BME280;34607;48.520;-1.330;2023-02-17T15:16:54;101517.84;;;12.77;100.00
48796;BME280;34607;48.520;-1.330;2023-02-17T15:19:21;101513.72;;;12.85;100.00
48796;BME280;34607;48.520;-1.330;2023-02-17T15:21:50;101507.75;;;12.89;100.00
48796;BME280;34607;48.520;-1.330;2023-02-17T15:24:20;101505.94;;;12.85;100.00
48796;BME280;34607;48.520;-1.330;2023-02-17T15:26:48;101493.63;;;12.80;100.00
48796;BME280;34607;48.520;-1.330;2023-02-17T15:29:19;101500.16;;;12.97;100.00
48796;BME280;34607;48.520;-1.330;2023-02-17T15:31:47;101506.31;;;13.01;100.00
48796;BME280;34607;48.520;-1.330;2023-02-17T15:34:17;101487.94;;;12.95;100.00
48796;BME280;34607;48.520;-1.330;2023-02-17T15:36:44;101498.44;;;12.98;100.00
48796;BME280;34607;48.520;-1.330;2023-02-17T15:39:12;101504.47;;;12.97;100.00
48796;BME280;34607;48.520;-1.330;2023-02-17T15:41:40;101482.66;;;12.91;100.00
48796;BME280;34607;48.520;-1.330;2023-02-17T15:44:14;101498.44;;;12.98;100.00
48796;BME280;34607;48.520;-1.330;2023-02-17T15:46:43;101494.34;;;13.07;100.00
48796;BME280;34607;48.520;-1.330;2023-02-17T15:49:11;101506.44;;;13.07;100.00
48796;BME280;34607;48.520;-1.330;2023-02-17T15:51:39;101490.75;;;13.02;100.00
48796;BME280;34607;48.520;-1.330;2023-02-17T15:54:06;101499.72;;;13.15;100.00
48796;BME280;34607;48.520;-1.330;2023-02-17T15:56:37;101500.59;;;13.16;100.00
48796;BME280;34607;48.520;-1.330;2023-02-17T15:59:13;101502.16;;;13.09;100.00
48796;BME280;34607;48.520;-1.330;2023-02-17T16:01:43;101495.22;;;13.08;100.00
48796;BME280;34607;48.520;-1.330;2023-02-17T16:04:11;101492.31;;;12.96;100.00
48796;BME280;34607;48.520;-1.330;2023-02-17T16:06:39;101504.13;;;12.83;100.00
48796;BME280;34607;48.520;-1.330;2023-02-17T16:09:06;101490.97;;;12.77;100.00
48796;BME280;34607;48.520;-1.330;2023-02-17T16:11:34;101500.06;;;12.94;100.00
48796;BME280;34607;48.520;-1.330;2023-02-17T16:14:01;101504.28;;;12.89;100.00
48796;BME280;34607;48.520;-1.330;2023-02-17T16:16:31;101494.88;;;12.94;100.00
48796;BME280;34607;48.520;-1.330;2023-02-17T16:19:00;101483.66;;;12.97;100.00
48796;BME280;34607;48.520;-1.330;2023-02-17T16:21:27;101502.06;;;13.04;100.00
48796;BME280;34607;48.520;-1.330;2023-02-17T16:23:54;101497.78;;;13.06;100.00
48796;BME280;34607;48.520;-1.330;2023-02-17T16:26:31;101452.09;;;12.81;100.00
48796;BME280;34607;48.520;-1.330;2023-02-17T16:29:10;101500.81;;;12.90;100.00
48796;BME280;34607;48.520;-1.330;2023-02-17T16:31:39;101500.59;;;12.81;100.00
48796;BME280;34607;48.520;-1.330;2023-02-17T16:34:12;101490.28;;;12.84;100.00
48796;BME280;34607;48.520;-1.330;2023-02-17T16:36:39;101493.75;;;12.84;100.00
48796;BME280;34607;48.520;-1.330;2023-02-17T16:39:10;101500.66;;;12.82;100.00
48796;BME280;34607;48.520;-1.330;2023-02-17T16:41:38;101506.50;;;12.73;100.00
48796;BME280;34607;48.520;-1.330;2023-02-17T16:44:05;101502.94;;;12.70;100.00
48796;BME280;34607;48.520;-1.330;2023-02-17T16:46:35;101464.06;;;12.41;100.00
48796;BME280;34607;48.520;-1.330;2023-02-17T16:49:14;101509.97;;;12.74;100.00
48796;BME280;34607;48.520;-1.330;2023-02-17T16:51:41;101512.63;;;12.77;100.00
48796;BME280;34607;48.520;-1.330;2023-02-17T16:54:08;101519.66;;;12.81;100.00
48796;BME280;34607;48.520;-1.330;2023-02-17T16:56:38;101512.81;;;12.85;100.00
48796;BME280;34607;48.520;-1.330;2023-02-17T16:59:12;101518.09;;;12.88;100.00
48796;BME280;34607;48.520;-1.330;2023-02-17T17:01:39;101519.91;;;12.90;100.00
48796;BME280;34607;48.520;-1.330;2023-02-17T17:04:11;101522.53;;;12.90;100.00
48796;BME280;34607;48.520;-1.330;2023-02-17T17:06:42;101520.66;;;12.86;100.00
48796;BME280;34607;48.520;-1.330;2023-02-17T17:09:14;101515.94;;;12.70;100.00
48796;BME280;34607;48.520;-1.330;2023-02-17T17:11:42;101516.53;;;12.60;100.00
48796;BME280;34607;48.520;-1.330;2023-02-17T17:14:09;101513.91;;;12.60;100.00
48796;BME280;34607;48.520;-1.330;2023-02-17T17:16:36;101502.53;;;12.54;100.00
48796;BME280;34607;48.520;-1.330;2023-02-17T17:19:05;101511.28;;;12.58;100.00
48796;BME280;34607;48.520;-1.330;2023-02-17T17:21:33;101515.56;;;12.58;100.00
48796;BME280;34607;48.520;-1.330;2023-02-17T17:24:00;101519.03;;;12.57;100.00
48796;BME280;34607;48.520;-1.330;2023-02-17T17:26:33;101524.09;;;12.52;100.00
48796;BME280;34607;48.520;-1.330;2023-02-17T17:29:04;101522.25;;;12.48;100.00
48796;BME280;34607;48.520;-1.330;2023-02-17T17:31:32;101515.09;;;12.39;100.00
48796;BME280;34607;48.520;-1.330;2023-02-17T17:33:59;101541.31;;;12.48;100.00
48796;BME280;34607;48.520;-1.330;2023-02-17T17:36:30;101531.88;;;12.52;100.00
48796;BME280;34607;48.520;-1.330;2023-02-17T17:39:01;101544.00;;;12.51;100.00
48796;BME280;34607;48.520;-1.330;2023-02-17T17:41:29;101533.56;;;12.50;100.00
48796;BME280;34607;48.520;-1.330;2023-02-17T17:43:56;101531.69;;;12.44;100.00
48796;BME280;34607;48.520;-1.330;2023-02-17T17:46:26;101539.53;;;12.47;100.00
48796;BME280;34607;48.520;-1.330;2023-02-17T17:48:54;101546.34;;;12.42;100.00
48796;BME280;34607;48.520;-1.330;2023-02-17T17:51:24;101541.13;;;12.42;100.00
48796;BME280;34607;48.520;-1.330;2023-02-17T17:53:51;101551.53;;;12.42;100.00
48796;BME280;34607;48.520;-1.330;2023-02-17T17:56:22;101550.66;;;12.42;100.00
48796;BME280;34607;48.520;-1.330;2023-02-17T17:58:50;101561.84;;;12.39;100.00
48796;BME280;34607;48.520;-1.330;2023-02-17T18:01:18;101564.78;;;12.21;100.00
48796;BME280;34607;48.520;-1.330;2023-02-17T18:03:46;101556.50;;;12.04;100.00
48796;BME280;34607;48.520;-1.330;2023-02-17T18:06:17;101578.19;;;12.06;100.00
48796;BME280;34607;48.520;-1.330;2023-02-17T18:08:46;101584.13;;;12.02;100.00
48796;BME280;34607;48.520;-1.330;2023-02-17T18:11:16;101566.06;;;12.05;100.00
48796;BME280;34607;48.520;-1.330;2023-02-17T18:13:48;101575.56;;;12.05;100.00
48796;BME280;34607;48.520;-1.330;2023-02-17T18:16:17;101565.97;;;12.02;100.00
48796;BME280;34607;48.520;-1.330;2023-02-17T18:18:45;101574.97;;;12.13;100.00
48796;BME280;34607;48.520;-1.330;2023-02-17T18:21:13;101577.63;;;12.15;100.00
48796;BME280;34607;48.520;-1.330;2023-02-17T18:23:40;101583.56;;;12.12;100.00
48796;BME280;34607;48.520;-1.330;2023-02-17T18:26:07;101580.06;;;12.10;100.00
48796;BME280;34607;48.520;-1.330;2023-02-17T18:28:34;101583.56;;;12.12;100.00
48796;BME280;34607;48.520;-1.330;2023-02-17T18:31:07;101575.69;;;12.09;100.00
48796;BME280;34607;48.520;-1.330;2023-02-17T18:33:34;101577.16;;;12.01;100.00
48796;BME280;34607;48.520;-1.330;2023-02-17T18:36:05;101576.44;;;12.05;100.00
48796;BME280;34607;48.520;-1.330;2023-02-17T18:38:32;101578.19;;;12.06;100.00
48796;BME280;34607;48.520;-1.330;2023-02-17T18:41:00;101568.47;;;11.99;100.00
48796;BME280;34607;48.520;-1.330;2023-02-17T18:43:27;101580.56;;;11.98;100.00
48796;BME280;34607;48.520;-1.330;2023-02-17T18:45:54;101585.72;;;11.97;100.00
48796;BME280;34607;48.520;-1.330;2023-02-17T18:48:22;101587.38;;;11.95;100.00
48796;BME280;34607;48.520;-1.330;2023-02-17T18:50:50;101584.75;;;11.93;100.00
48796;BME280;34607;48.520;-1.330;2023-02-17T18:53:17;101578.69;;;11.93;100.00
48796;BME280;34607;48.520;-1.330;2023-02-17T18:55:44;101570.56;;;11.84;100.00
48796;BME280;34607;48.520;-1.330;2023-02-17T18:58:11;101587.94;;;11.86;100.00
48796;BME280;34607;48.520;-1.330;2023-02-17T19:00:38;101588.69;;;11.82;100.00
48796;BME280;34607;48.520;-1.330;2023-02-17T19:03:06;101591.31;;;11.84;100.00
48796;BME280;34607;48.520;-1.330;2023-02-17T19:05:43;101583.53;;;11.84;100.00
48796;BME280;34607;48.520;-1.330;2023-02-17T19:08:10;101589.47;;;11.79;100.00
48796;BME280;34607;48.520;-1.330;2023-02-17T19:10:37;101585.84;;;11.74;100.00
48796;BME280;34607;48.520;-1.330;2023-02-17T19:13:04;101581.50;;;11.73;100.00
48796;BME280;34607;48.520;-1.330;2023-02-17T19:15:32;101584.06;;;11.73;100.00
48796;BME280;34607;48.520;-1.330;2023-02-17T19:17:59;101585.91;;;11.76;100.00
48796;BME280;34607;48.520;-1.330;2023-02-17T19:20:27;101577.22;;;11.75;100.00
48796;BME280;34607;48.520;-1.330;2023-02-17T19:22:59;101590.50;;;11.85;100.00
48796;BME280;34607;48.520;-1.330;2023-02-17T19:25:27;101591.41;;;11.87;100.00
48796;BME280;34607;48.520;-1.330;2023-02-17T19:27:54;101592.47;;;11.92;100.00
48796;BME280;34607;48.520;-1.330;2023-02-17T19:30:21;101588.09;;;11.91;100.00
48796;BME280;34607;48.520;-1.330;2023-02-17T19:32:48;101587.16;;;11.89;100.00
48796;BME280;34607;48.520;-1.330;2023-02-17T19:35:16;101587.06;;;11.86;100.00
48796;BME280;34607;48.520;-1.330;2023-02-17T19:37:43;101587.09;;;11.87;100.00
48796;BME280;34607;48.520;-1.330;2023-02-17T19:40:12;101581.88;;;11.86;100.00
48796;BME280;34607;48.520;-1.330;2023-02-17T19:42:39;101586.13;;;11.84;100.00
48796;BME280;34607;48.520;-1.330;2023-02-17T19:45:06;101583.47;;;11.82;100.00
48796;BME280;34607;48.520;-1.330;2023-02-17T19:47:34;101564.06;;;11.69;100.00
48796;BME280;34607;48.520;-1.330;2023-02-17T19:50:05;101581.75;;;11.81;100.00
48796;BME280;34607;48.520;-1.330;2023-02-17T19:52:33;101587.69;;;11.78;100.00
48796;BME280;34607;48.520;-1.330;2023-02-17T19:55:02;101565.47;;;11.59;100.00
48796;BME280;34607;48.520;-1.330;2023-02-17T19:57:31;101592.84;;;11.77;100.00
48796;BME280;34607;48.520;-1.330;2023-02-17T20:03:18;101584.03;;;11.72;100.00
48796;BME280;34607;48.520;-1.330;2023-02-17T20:05:45;101597.09;;;11.75;100.00
48796;BME280;34607;48.520;-1.330;2023-02-17T20:08:12;101583.97;;;11.70;100.00
48796;BME280;34607;48.520;-1.330;2023-02-17T20:10:39;101588.72;;;11.84;100.00
48796;BME280;34607;48.520;-1.330;2023-02-17T20:13:08;101596.66;;;11.88;100.00
48796;BME280;34607;48.520;-1.330;2023-02-17T20:15:35;101593.19;;;11.88;100.00
48796;BME280;34607;48.520;-1.330;2023-02-17T20:18:02;101598.50;;;11.91;100.00
48796;BME280;34607;48.520;-1.330;2023-02-17T20:20:29;101599.31;;;11.90;100.00
48796;BME280;34607;48.520;-1.330;2023-02-17T20:22:57;101556.94;;;11.62;100.00
48796;BME280;34607;48.520;-1.330;2023-02-17T20:25:25;101537.66;;;11.54;100.00
48796;BME280;34607;48.520;-1.330;2023-02-17T20:27:52;101596.50;;;11.84;100.00
48796;BME280;34607;48.520;-1.330;2023-02-17T20:30:21;101593.88;;;11.82;100.00
48796;BME280;34607;48.520;-1.330;2023-02-17T20:32:48;101593.03;;;11.83;100.00
48796;BME280;34607;48.520;-1.330;2023-02-17T20:35:15;101591.31;;;11.84;100.00
48796;BME280;34607;48.520;-1.330;2023-02-17T20:37:42;101592.22;;;11.84;100.00